createdAt,value
2018-07-26T00:02:27.724Z,10.28
2018-07-26T00:04:55.789Z,9.80
2018-07-26T00:07:23.940Z,11.80
2018-07-26T00:09:52.065Z,9.65
2018-07-26T00:12:21.165Z,11.55
2018-07-26T00:14:49.298Z,13.13
2018-07-26T00:17:17.468Z,11.28
2018-07-26T00:19:45.578Z,13.13
2018-07-26T00:22:13.628Z,12.60
2018-07-26T00:24:41.814Z,10.65
2018-07-26T00:27:09.977Z,12.58
2018-07-26T00:29:38.103Z,13.08
2018-07-26T00:32:06.260Z,11.30
2018-07-26T00:34:34.435Z,11.05
2018-07-26T00:37:02.529Z,10.63
2018-07-26T00:39:30.734Z,10.13
2018-07-26T00:41:58.818Z,11.20
2018-07-26T00:44:27.015Z,13.32
2018-07-26T00:46:55.179Z,11.33
2018-07-26T00:49:23.293Z,11.68
2018-07-26T00:51:51.454Z,13.05
2018-07-26T00:54:19.587Z,10.53
2018-07-26T00:56:47.739Z,10.68
2018-07-26T00:59:15.909Z,10.15
2018-07-26T01:01:44.044Z,15.03
2018-07-26T01:04:12.146Z,12.82
2018-07-26T01:06:40.272Z,10.63
2018-07-26T01:09:10.018Z,10.35
2018-07-26T01:11:38.511Z,11.95
2018-07-26T01:14:06.781Z,10.63
2018-07-26T01:16:35.142Z,10.50
2018-07-26T01:19:03.719Z,10.45
2018-07-26T01:21:31.995Z,10.80
2018-07-26T01:24:00.132Z,11.08
2018-07-26T01:26:28.259Z,13.10
2018-07-26T01:28:56.536Z,13.35
2018-07-26T01:31:24.798Z,11.78
2018-07-26T01:33:53.312Z,10.75
2018-07-26T01:36:21.543Z,10.40
2018-07-26T01:38:51.648Z,13.15
2018-07-26T01:41:19.798Z,11.75
2018-07-26T01:43:59.196Z,10.28
2018-07-26T01:46:27.583Z,10.82
2018-07-26T01:48:55.743Z,10.32
2018-07-26T01:51:23.864Z,10.72
2018-07-26T01:53:51.998Z,12.33
2018-07-26T01:56:20.227Z,13.15
2018-07-26T01:58:48.395Z,10.10
2018-07-26T02:01:16.544Z,11.15
2018-07-26T02:03:44.898Z,10.85
2018-07-26T02:06:13.093Z,11.95
2018-07-26T02:08:41.215Z,11.95
2018-07-26T02:11:09.448Z,12.00
2018-07-26T02:13:37.738Z,11.00
2018-07-26T02:16:05.821Z,18.32
2018-07-26T02:18:34.070Z,10.72
2018-07-26T02:21:02.168Z,12.03
2018-07-26T02:23:30.284Z,12.13
2018-07-26T02:25:58.442Z,11.73
2018-07-26T02:28:26.533Z,11.70
2018-07-26T02:30:54.687Z,13.00
2018-07-26T02:33:22.856Z,11.63
2018-07-26T02:35:50.970Z,11.45
2018-07-26T02:38:19.091Z,11.97
2018-07-26T02:40:47.193Z,11.95
2018-07-26T02:43:15.377Z,13.38
2018-07-26T02:45:43.558Z,14.25
2018-07-26T02:48:11.754Z,15.38
2018-07-26T02:50:39.936Z,15.08
2018-07-26T02:53:08.141Z,13.48
2018-07-26T02:55:36.347Z,13.08
2018-07-26T02:58:04.593Z,14.35
2018-07-26T03:00:32.835Z,14.20
2018-07-26T03:03:00.985Z,17.10
2018-07-26T03:05:29.147Z,14.40
2018-07-26T03:07:57.384Z,14.70
2018-07-26T03:10:25.574Z,14.43
2018-07-26T03:12:53.748Z,15.60
2018-07-26T03:15:22.013Z,13.95
2018-07-26T03:17:50.260Z,15.38
2018-07-26T03:20:18.415Z,17.73
2018-07-26T03:22:46.590Z,15.28
2018-07-26T03:25:14.792Z,15.28
2018-07-26T03:27:42.970Z,15.68
2018-07-26T03:30:11.051Z,15.93
2018-07-26T03:32:39.279Z,16.05
2018-07-26T03:35:07.421Z,16.00
2018-07-26T03:37:35.574Z,17.05
2018-07-26T03:40:04.143Z,17.07
2018-07-26T03:42:32.334Z,17.90
2018-07-26T03:45:00.408Z,17.70
2018-07-26T03:47:28.638Z,17.27
2018-07-26T03:49:56.972Z,53.30
2018-07-26T03:52:25.316Z,20.60
2018-07-26T03:54:53.625Z,17.45
2018-07-26T03:57:22.208Z,16.67
2018-07-26T03:59:50.556Z,18.32
2018-07-26T04:02:19.008Z,16.75
2018-07-26T04:04:47.472Z,18.55
2018-07-26T04:07:15.687Z,19.52
2018-07-26T04:09:46.429Z,20.82
2018-07-26T04:12:14.815Z,28.90
2018-07-26T04:14:43.271Z,14.83
2018-07-26T04:17:11.638Z,14.18
2018-07-26T04:19:39.786Z,13.35
2018-07-26T04:22:08.072Z,17.95
2018-07-26T04:24:36.260Z,14.00
2018-07-26T04:27:04.545Z,14.40
2018-07-26T04:29:32.706Z,20.50
2018-07-26T04:32:01.062Z,14.20
2018-07-26T04:34:29.086Z,13.55
2018-07-26T04:36:57.396Z,13.88
2018-07-26T04:39:25.851Z,15.28
2018-07-26T04:41:54.225Z,16.15
2018-07-26T04:44:22.620Z,13.65
2018-07-26T04:46:50.931Z,12.73
2018-07-26T04:49:19.270Z,11.63
2018-07-26T04:51:47.603Z,11.60
2018-07-26T04:54:16.098Z,13.10
2018-07-26T04:56:44.418Z,13.50
2018-07-26T04:59:12.719Z,11.73
2018-07-26T05:01:41.081Z,9.48
2018-07-26T05:04:09.463Z,12.50
2018-07-26T05:06:37.830Z,9.83
2018-07-26T05:09:08.396Z,10.65
2018-07-26T05:11:37.726Z,10.53
2018-07-26T05:14:05.924Z,8.88
2018-07-26T05:16:34.231Z,9.85
2018-07-26T05:19:02.616Z,10.65
2018-07-26T05:22:34.434Z,10.95
2018-07-26T05:25:02.995Z,11.88
2018-07-26T05:27:31.453Z,14.47
2018-07-26T05:29:59.622Z,10.35
2018-07-26T05:32:27.937Z,9.00
2018-07-26T05:34:56.609Z,8.90
2018-07-26T05:37:25.038Z,7.47
2018-07-26T05:39:53.497Z,9.30
2018-07-26T05:42:23.854Z,8.93
2018-07-26T05:44:52.218Z,13.53
2018-07-26T05:47:20.835Z,15.20
2018-07-26T05:49:49.333Z,15.50
2018-07-26T05:52:17.767Z,10.03
2018-07-26T05:54:47.161Z,8.55
2018-07-26T05:57:15.884Z,10.55
2018-07-26T05:59:44.869Z,10.20
2018-07-26T06:02:13.982Z,11.28
2018-07-26T06:04:43.808Z,11.43
2018-07-26T06:07:12.194Z,10.98
2018-07-26T06:09:41.886Z,9.73
2018-07-26T06:12:10.423Z,9.00
2018-07-26T06:14:38.742Z,12.35
2018-07-26T06:17:07.270Z,9.43
2018-07-26T06:19:35.798Z,10.03
2018-07-26T06:22:04.368Z,10.43
2018-07-26T06:24:37.841Z,11.70
2018-07-26T06:27:06.440Z,9.20
2018-07-26T06:29:34.883Z,9.70
2018-07-26T06:32:03.326Z,9.70
2018-07-26T06:34:31.751Z,13.95
2018-07-26T06:37:00.121Z,14.23
2018-07-26T06:39:28.579Z,12.05
2018-07-26T06:41:57.026Z,10.85
2018-07-26T06:44:26.459Z,10.48
2018-07-26T06:46:54.843Z,15.75
2018-07-26T06:49:23.367Z,10.55
2018-07-26T06:51:51.930Z,10.28
2018-07-26T06:54:20.474Z,9.28
2018-07-26T06:56:48.890Z,10.20
2018-07-26T06:59:17.328Z,9.65
2018-07-26T07:01:45.725Z,14.80
2018-07-26T07:04:14.219Z,13.40
2018-07-26T07:06:46.290Z,11.70
2018-07-26T07:09:14.812Z,12.98
2018-07-26T07:11:43.303Z,15.70
2018-07-26T07:14:11.830Z,12.90
2018-07-26T07:16:40.344Z,13.43
2018-07-26T07:19:09.851Z,12.30
2018-07-26T07:21:38.247Z,13.10
2018-07-26T07:24:06.851Z,11.55
2018-07-26T07:26:35.048Z,12.05
2018-07-26T07:29:06.536Z,12.33
2018-07-26T07:31:35.470Z,12.53
2018-07-26T07:34:04.051Z,12.85
2018-07-26T07:36:32.839Z,13.25
2018-07-26T07:39:01.714Z,13.38
2018-07-26T07:41:30.532Z,12.58
2018-07-26T07:43:59.288Z,13.58
2018-07-26T07:46:28.708Z,15.40
2018-07-26T07:48:57.671Z,15.63
2018-07-26T07:51:26.723Z,18.37
2018-07-26T07:53:57.862Z,14.23
2018-07-26T07:56:26.839Z,15.25
2018-07-26T07:58:56.901Z,15.58
2018-07-26T08:01:26.681Z,16.05
2018-07-26T08:03:57.408Z,15.45
2018-07-26T08:06:29.745Z,15.75
2018-07-26T08:09:02.005Z,15.32
2018-07-26T08:11:34.673Z,15.63
2018-07-26T08:14:08.566Z,15.65
2018-07-26T08:16:41.170Z,15.58
2018-07-26T08:19:12.644Z,15.55
2018-07-26T08:21:43.280Z,16.10
2018-07-26T08:24:15.186Z,18.17
2018-07-26T08:26:46.364Z,13.85
2018-07-26T08:29:18.833Z,16.57
2018-07-26T08:31:50.920Z,13.80
2018-07-26T08:34:23.722Z,16.48
2018-07-26T08:36:56.369Z,18.10
2018-07-26T08:39:28.837Z,16.60
2018-07-26T08:42:01.342Z,17.82
2018-07-26T08:44:34.166Z,17.85
2018-07-26T08:47:03.591Z,16.40
2018-07-26T08:49:35.379Z,16.17
2018-07-26T08:52:07.114Z,16.07
2018-07-26T08:54:44.004Z,14.25
2018-07-26T08:57:18.570Z,14.73
2018-07-26T08:59:49.437Z,13.93
2018-07-26T09:02:22.914Z,15.25
2018-07-26T09:04:56.075Z,18.35
2018-07-26T09:07:27.666Z,14.13
2018-07-26T09:10:00.473Z,15.23
2018-07-26T09:12:31.475Z,13.43
2018-07-26T09:15:05.268Z,13.53
2018-07-26T09:17:37.686Z,15.13
2018-07-26T09:20:10.288Z,21.42
2018-07-26T09:22:41.537Z,14.05
2018-07-26T09:25:12.102Z,12.65
2018-07-26T09:27:41.974Z,15.65
2018-07-26T09:30:11.876Z,12.53
2018-07-26T09:32:42.614Z,13.18
2018-07-26T09:35:11.672Z,12.75
2018-07-26T09:37:42.723Z,16.07
2018-07-26T09:40:12.596Z,11.80
2018-07-26T09:42:49.748Z,13.43
2018-07-26T09:45:20.166Z,12.40
2018-07-26T09:47:48.905Z,11.30
2018-07-26T09:50:17.859Z,13.48
2018-07-26T09:52:46.560Z,13.38
2018-07-26T10:01:03.398Z,12.07
2018-07-26T10:03:33.632Z,9.73
2018-07-26T10:06:03.706Z,12.58
2018-07-26T10:08:33.290Z,10.70
2018-07-26T10:11:01.986Z,11.35
2018-07-26T10:13:34.112Z,10.95
2018-07-26T10:16:06.339Z,10.90
2018-07-26T10:18:44.337Z,11.53
2018-07-26T10:21:15.186Z,9.63
2018-07-26T10:24:00.712Z,11.40
2018-07-26T10:29:10.333Z,9.83
2018-07-26T10:31:38.659Z,8.80
2018-07-26T10:34:06.986Z,8.68
2018-07-26T10:36:35.298Z,8.95
2018-07-26T10:39:05.631Z,11.20
2018-07-26T10:41:33.915Z,9.80
2018-07-26T10:44:02.226Z,8.53
2018-07-26T10:46:30.589Z,9.33
2018-07-26T10:48:58.876Z,12.23
2018-07-26T10:51:27.161Z,7.08
2018-07-26T10:53:55.485Z,9.50
2018-07-26T10:56:23.781Z,7.30
2018-07-26T10:58:52.044Z,8.15
2018-07-26T11:01:20.363Z,8.03
2018-07-26T11:03:48.718Z,6.83
2018-07-26T11:06:17.006Z,10.98
2018-07-26T11:08:45.259Z,9.88
2018-07-26T11:11:20.527Z,7.00
2018-07-26T11:13:50.005Z,7.55
2018-07-26T11:16:18.286Z,9.03
2018-07-26T11:18:46.572Z,6.60
2018-07-26T11:21:14.903Z,7.50
2018-07-26T11:23:43.237Z,5.05
2018-07-26T11:26:11.514Z,5.87
2018-07-26T11:28:39.837Z,5.45
2018-07-26T11:31:08.189Z,8.70
2018-07-26T11:33:36.497Z,7.15
2018-07-26T11:36:04.858Z,7.92
2018-07-26T11:38:33.180Z,6.92
2018-07-26T11:41:01.467Z,9.05
2018-07-26T11:43:29.817Z,5.67
2018-07-26T11:45:58.091Z,5.40
2018-07-26T11:48:26.356Z,9.45
2018-07-26T11:50:54.629Z,5.37
2018-07-26T11:53:22.969Z,6.17
2018-07-26T11:55:53.790Z,5.47
2018-07-26T11:58:22.059Z,7.20
2018-07-26T12:00:50.402Z,6.37
2018-07-26T12:03:18.743Z,6.35
2018-07-26T12:05:47.085Z,7.62
2018-07-26T12:08:15.408Z,7.20
2018-07-26T12:10:43.770Z,7.17
2018-07-26T12:13:12.078Z,8.80
2018-07-26T12:15:40.374Z,5.37
2018-07-26T12:18:08.713Z,4.58
2018-07-26T12:20:38.023Z,4.35
2018-07-26T12:23:06.505Z,3.75
2018-07-26T12:25:34.843Z,6.00
2018-07-26T12:28:03.228Z,4.55
2018-07-26T12:30:31.616Z,5.65
2018-07-26T12:32:59.948Z,5.62
2018-07-26T12:35:28.317Z,5.70
2018-07-26T12:37:56.610Z,6.00
2018-07-26T12:40:24.944Z,7.37
2018-07-26T12:42:53.277Z,8.48
2018-07-26T12:45:21.570Z,7.62
2018-07-26T12:47:49.910Z,6.62
2018-07-26T12:50:18.201Z,5.08
2018-07-26T12:52:46.492Z,5.28
2018-07-26T12:55:14.887Z,4.95
2018-07-26T12:57:46.889Z,4.75
2018-07-26T13:00:16.192Z,4.78
2018-07-26T13:02:44.584Z,5.60
2018-07-26T13:05:12.894Z,5.58
2018-07-26T13:07:41.221Z,5.62
2018-07-26T13:10:09.558Z,6.05
2018-07-26T13:12:37.817Z,5.87
2018-07-26T13:15:06.452Z,4.72
2018-07-26T13:17:34.728Z,4.75
2018-07-26T13:20:03.135Z,4.62
2018-07-26T13:22:31.587Z,6.53
2018-07-26T13:25:00.437Z,7.70
2018-07-26T13:27:28.970Z,5.15
2018-07-26T13:29:57.441Z,5.80
2018-07-26T13:32:25.830Z,8.58
2018-07-26T13:34:54.173Z,10.15
2018-07-26T13:37:22.490Z,9.65
2018-07-26T13:40:53.342Z,6.75
2018-07-26T13:43:21.661Z,6.83
2018-07-26T13:45:49.973Z,5.22
2018-07-26T13:48:18.275Z,5.25
2018-07-26T13:50:46.609Z,4.53
2018-07-26T13:53:14.892Z,5.83
2018-07-26T13:55:43.293Z,4.50
2018-07-26T13:58:14.115Z,7.37
2018-07-26T14:00:42.456Z,4.87
2018-07-26T14:03:10.822Z,5.62
2018-07-26T14:05:39.116Z,8.05
2018-07-26T14:08:07.393Z,5.62
2018-07-26T14:10:35.711Z,4.87
2018-07-26T14:13:04.034Z,6.25
2018-07-26T14:15:32.408Z,4.12
2018-07-26T14:18:00.674Z,8.13
2018-07-26T14:20:28.969Z,7.83
2018-07-26T14:22:57.307Z,5.25
2018-07-26T14:25:25.686Z,4.17
2018-07-26T14:27:54.005Z,5.05
2018-07-26T14:30:22.413Z,4.00
2018-07-26T14:32:50.749Z,4.58
2018-07-26T14:35:19.067Z,4.20
2018-07-26T14:37:47.422Z,4.95
2018-07-26T14:40:15.771Z,4.80
2018-07-26T14:42:44.069Z,4.60
2018-07-26T14:45:12.374Z,4.55
2018-07-26T14:47:40.690Z,4.35
2018-07-26T14:50:09.098Z,4.75
2018-07-26T14:52:37.421Z,4.72
2018-07-26T14:55:05.707Z,4.17
2018-07-26T14:57:34.008Z,4.20
2018-07-26T15:00:02.417Z,4.12
2018-07-26T15:02:30.699Z,3.95
2018-07-26T15:04:59.049Z,4.12
2018-07-26T15:07:28.364Z,4.72
2018-07-26T15:09:56.679Z,3.77
2018-07-26T15:12:24.927Z,4.00
2018-07-26T15:14:53.236Z,3.95
2018-07-26T15:17:21.789Z,3.98
2018-07-26T15:19:50.165Z,4.17
2018-07-26T15:22:18.499Z,6.33
2018-07-26T15:24:48.045Z,9.98
2018-07-26T15:27:16.432Z,6.72
2018-07-26T15:29:44.756Z,5.92
2018-07-26T15:32:13.130Z,4.37
2018-07-26T15:34:41.454Z,5.33
2018-07-26T15:37:12.678Z,4.50
2018-07-26T15:39:40.973Z,4.25
2018-07-26T15:42:09.435Z,5.40
2018-07-26T15:44:37.784Z,4.50
2018-07-26T15:47:06.184Z,8.98
2018-07-26T15:49:34.494Z,4.85
2018-07-26T15:52:02.802Z,4.72
2018-07-26T15:54:32.174Z,3.80
2018-07-26T15:57:00.590Z,3.65
2018-07-26T15:59:30.076Z,3.85
2018-07-26T16:01:58.517Z,4.47
2018-07-26T16:04:27.881Z,4.60
2018-07-26T16:06:56.178Z,6.10
2018-07-26T16:09:24.538Z,5.58
2018-07-26T16:11:53.992Z,4.60
2018-07-26T16:14:22.322Z,3.77
2018-07-26T16:16:50.612Z,4.95
2018-07-26T16:19:18.888Z,9.88
2018-07-26T16:21:47.206Z,6.47
2018-07-26T16:24:15.476Z,4.62
2018-07-26T16:26:43.791Z,4.72
2018-07-26T16:29:12.080Z,8.30
2018-07-26T16:31:40.375Z,4.65
2018-07-26T16:34:08.738Z,5.00
2018-07-26T16:36:38.043Z,6.60
2018-07-26T16:39:08.535Z,3.92
2018-07-26T16:41:36.870Z,3.90
2018-07-26T16:44:05.668Z,5.40
2018-07-26T16:46:34.101Z,20.20
2018-07-26T16:49:02.422Z,5.85
2018-07-26T16:51:30.805Z,5.53
2018-07-26T16:54:01.660Z,4.78
2018-07-26T16:56:29.976Z,3.77
2018-07-26T16:58:58.380Z,4.83
2018-07-26T17:01:26.662Z,5.65
2018-07-26T17:03:55.199Z,9.10
2018-07-26T17:06:23.521Z,5.08
2018-07-26T17:08:58.056Z,6.62
2018-07-26T17:11:26.452Z,6.87
2018-07-26T17:13:54.819Z,5.78
2018-07-26T17:16:23.135Z,6.62
2018-07-26T17:18:51.588Z,7.42
2018-07-26T17:21:19.819Z,8.28
2018-07-26T17:23:48.131Z,9.48
2018-07-26T17:26:16.508Z,6.37
2018-07-26T17:28:44.853Z,6.03
2018-07-26T17:31:13.179Z,7.22
2018-07-26T17:33:41.230Z,5.62
2018-07-26T17:36:09.285Z,8.68
2018-07-26T17:38:37.399Z,5.08
2018-07-26T17:41:05.416Z,5.45
2018-07-26T17:43:33.401Z,5.20
2018-07-26T17:46:01.407Z,7.58
2018-07-26T17:48:29.504Z,8.35
2018-07-26T17:50:57.514Z,9.95
2018-07-26T17:53:25.457Z,5.22
2018-07-26T17:55:53.410Z,6.83
2018-07-26T17:58:21.362Z,4.70
2018-07-26T18:00:49.336Z,5.83
2018-07-26T18:03:17.366Z,10.08
2018-07-26T18:05:45.275Z,4.83
2018-07-26T18:08:13.229Z,8.48
2018-07-26T18:10:41.296Z,8.55
2018-07-26T18:13:09.523Z,9.05
2018-07-26T18:15:37.529Z,7.30
2018-07-26T18:18:05.469Z,7.37
2018-07-26T18:20:33.461Z,4.92
2018-07-26T18:23:01.368Z,5.47
2018-07-26T18:25:29.402Z,5.35
2018-07-26T18:27:57.337Z,7.65
2018-07-26T18:30:25.320Z,12.75
2018-07-26T18:32:53.255Z,7.95
2018-07-26T18:35:21.325Z,11.33
2018-07-26T18:37:49.237Z,8.40
2018-07-26T18:40:17.169Z,7.05
2018-07-26T18:42:44.997Z,8.00
2018-07-26T18:45:12.913Z,6.78
2018-07-26T18:47:40.845Z,4.70
2018-07-26T18:50:09.996Z,5.87
2018-07-26T18:52:38.021Z,7.22
2018-07-26T18:58:23.432Z,9.53
2018-07-26T19:00:51.654Z,6.20
2018-07-26T19:03:19.586Z,9.73
2018-07-26T19:05:47.567Z,6.30
2018-07-26T19:08:15.607Z,8.90
2018-07-26T19:10:44.644Z,5.78
2018-07-26T19:13:12.659Z,9.73
2018-07-26T19:15:41.603Z,6.17
2018-07-26T19:18:09.821Z,7.85
2018-07-26T19:20:39.926Z,7.05
2018-07-26T19:23:07.758Z,5.92
2018-07-26T19:25:35.772Z,7.55
2018-07-26T19:28:03.772Z,9.63
2018-07-26T19:30:31.727Z,8.30
2018-07-26T19:32:59.690Z,10.18
2018-07-26T19:35:27.752Z,9.53
2018-07-26T19:37:55.723Z,8.25
2018-07-26T19:40:23.733Z,9.18
2018-07-26T19:42:51.680Z,9.55
2018-07-26T19:45:23.664Z,10.58
2018-07-26T19:47:51.590Z,6.28
2018-07-26T19:50:19.729Z,7.20
2018-07-26T19:52:47.755Z,23.55
2018-07-26T19:55:15.802Z,15.65
2018-07-26T19:57:43.772Z,6.08
2018-07-26T20:00:15.433Z,8.03
2018-07-26T20:02:43.193Z,8.78
2018-07-26T20:05:11.081Z,6.62
2018-07-26T20:07:39.215Z,7.22
2018-07-26T20:10:09.025Z,7.30
2018-07-26T20:12:36.811Z,6.53
2018-07-26T20:15:05.857Z,7.67
2018-07-26T20:17:33.656Z,6.90
2018-07-26T20:20:02.752Z,5.70
2018-07-26T20:22:30.519Z,10.03
2018-07-26T20:24:58.375Z,7.92
2018-07-26T20:27:26.209Z,11.38
2018-07-26T20:29:53.975Z,9.05
2018-07-26T20:32:22.894Z,12.88
2018-07-26T20:34:50.722Z,8.20
2018-07-26T20:37:18.567Z,16.70
2018-07-26T20:39:46.323Z,8.73
2018-07-26T20:42:14.248Z,8.60
2018-07-26T20:44:42.016Z,9.18
2018-07-26T20:47:09.909Z,9.20
2018-07-26T20:49:37.708Z,7.83
2018-07-26T20:52:05.630Z,6.42
2018-07-26T20:54:33.408Z,6.87
2018-07-26T20:57:01.158Z,6.10
2018-07-26T20:59:28.923Z,6.78
2018-07-26T21:01:56.806Z,6.80
2018-07-26T21:04:24.579Z,6.80
2018-07-26T21:06:52.414Z,13.72
2018-07-26T21:09:20.204Z,8.23
2018-07-26T21:11:50.001Z,12.03
2018-07-26T21:14:17.757Z,7.87
2018-07-26T21:16:45.505Z,13.25
2018-07-26T21:19:13.498Z,19.98
2018-07-26T21:21:41.361Z,10.78
2018-07-26T21:24:09.140Z,21.10
2018-07-26T21:26:36.917Z,15.45
2018-07-26T21:29:04.810Z,14.53
2018-07-26T21:31:32.575Z,8.80
2018-07-26T21:34:00.391Z,8.08
2018-07-26T21:36:28.152Z,7.45
2018-07-26T21:38:55.966Z,9.38
2018-07-26T21:41:23.762Z,7.20
2018-07-26T21:43:51.524Z,10.28
2018-07-26T21:46:19.412Z,8.10
2018-07-26T21:48:47.156Z,7.42
2018-07-26T21:51:14.872Z,9.00
2018-07-26T21:53:42.637Z,8.58
2018-07-26T21:56:10.436Z,9.65
2018-07-26T21:58:38.187Z,9.30
2018-07-26T22:01:06.028Z,10.00
2018-07-26T22:03:33.824Z,9.95
2018-07-26T22:06:01.622Z,10.30
2018-07-26T22:08:29.405Z,10.90
2018-07-26T22:10:57.183Z,14.93
2018-07-26T22:13:24.924Z,12.05
2018-07-26T22:15:52.826Z,12.40
2018-07-26T22:18:21.155Z,11.93
2018-07-26T22:20:48.982Z,12.07
2018-07-26T22:23:16.870Z,12.60
2018-07-26T22:25:47.503Z,11.63
2018-07-26T22:28:15.654Z,12.30
2018-07-26T22:30:43.846Z,10.43
2018-07-26T22:33:11.781Z,12.23
2018-07-26T22:35:40.167Z,14.23
2018-07-26T22:38:07.895Z,13.88
2018-07-26T22:40:35.654Z,14.40
2018-07-26T22:43:03.590Z,16.23
2018-07-26T22:45:31.446Z,14.47
2018-07-26T22:47:59.151Z,14.75
2018-07-26T22:50:26.885Z,14.68
2018-07-26T22:52:54.652Z,15.45
2018-07-26T22:55:22.385Z,16.25
2018-07-26T22:57:50.143Z,15.43
2018-07-26T23:00:17.912Z,14.68
2018-07-26T23:02:45.645Z,16.55
2018-07-26T23:05:14.485Z,15.20
2018-07-26T23:07:42.238Z,15.78
2018-07-26T23:10:10.373Z,17.23
2018-07-26T23:12:38.519Z,17.23
2018-07-26T23:15:07.475Z,14.70
2018-07-26T23:17:35.363Z,14.65
2018-07-26T23:20:03.410Z,15.45
2018-07-26T23:22:31.130Z,17.48
2018-07-26T23:24:58.843Z,17.77
2018-07-26T23:27:28.586Z,17.75
2018-07-26T23:29:56.364Z,18.85
2018-07-26T23:32:24.100Z,19.95
2018-07-26T23:34:51.872Z,20.70
2018-07-26T23:37:20.637Z,23.00
2018-07-26T23:39:48.315Z,21.05
2018-07-26T23:42:16.072Z,20.88
2018-07-26T23:44:43.802Z,21.33
2018-07-26T23:47:12.555Z,18.87
2018-07-26T23:49:40.255Z,19.23
2018-07-26T23:52:08.051Z,18.60
2018-07-26T23:54:35.769Z,17.67
2018-07-26T23:57:03.534Z,18.65
2018-07-26T23:59:31.245Z,18.32
